sensor_id;sensor_type;location;lat;lon;timestamp;pressure;altitude;pressure_sealevel;temperature;humidity
40908;BME280;51055;59.436;24.778;2022-10-15T00:01:14;101324.34;;;10.30;100.00
40908;BME280;51055;59.436;24.778;2022-10-15T00:03:43;101318.38;;;10.26;100.00
40908;BME280;51055;59.436;24.778;2022-10-15T00:06:16;101319.97;;;10.29;100.00
40908;BME280;51055;59.436;24.778;2022-10-15T00:08:45;101318.38;;;10.26;100.00
40908;BME280;51055;59.436;24.778;2022-10-15T00:11:16;101319.47;;;10.24;100.00
40908;BME280;51055;59.436;24.778;2022-10-15T00:13:44;101313.38;;;10.22;100.00
40908;BME280;51055;59.436;24.778;2022-10-15T00:16:18;101308.00;;;10.23;100.00
40908;BME280;51055;59.436;24.778;2022-10-15T00:18:46;101315.19;;;10.21;100.00
40908;BME280;51055;59.436;24.778;2022-10-15T00:21:17;101326.66;;;10.22;100.00
40908;BME280;51055;59.436;24.778;2022-10-15T00:23:45;101316.91;;;10.22;100.00
40908;BME280;51055;59.436;24.778;2022-10-15T00:26:19;101318.69;;;10.22;100.00
40908;BME280;51055;59.436;24.778;2022-10-15T00:28:49;101322.19;;;10.22;100.00
40908;BME280;51055;59.436;24.778;2022-10-15T00:31:18;101322.31;;;10.21;100.00
40908;BME280;51055;59.436;24.778;2022-10-15T00:33:48;101320.63;;;10.20;100.00
40908;BME280;51055;59.436;24.778;2022-10-15T00:36:21;101327.63;;;10.21;100.00
40908;BME280;51055;59.436;24.778;2022-10-15T00:38:50;101324.00;;;10.22;100.00
40908;BME280;51055;59.436;24.778;2022-10-15T00:43:53;101319.25;;;10.14;100.00
40908;BME280;51055;59.436;24.778;2022-10-15T00:46:38;101318.25;;;10.15;100.00
40908;BME280;51055;59.436;24.778;2022-10-15T00:49:36;101318.16;;;10.17;100.00
40908;BME280;51055;59.436;24.778;2022-10-15T00:52:18;101317.31;;;10.16;100.00
40908;BME280;51055;59.436;24.778;2022-10-15T00:54:58;101319.13;;;10.16;100.00
40908;BME280;51055;59.436;24.778;2022-10-15T00:57:30;101324.69;;;10.11;100.00
40908;BME280;51055;59.436;24.778;2022-10-15T01:00:03;101318.38;;;10.14;100.00
40908;BME280;51055;59.436;24.778;2022-10-15T01:02:31;101325.53;;;10.12;100.00
40908;BME280;51055;59.436;24.778;2022-10-15T01:04:59;101316.72;;;10.11;100.00
40908;BME280;51055;59.436;24.778;2022-10-15T01:07:27;101314.00;;;10.13;100.00
40908;BME280;51055;59.436;24.778;2022-10-15T01:09:55;101318.38;;;10.14;100.00
40908;BME280;51055;59.436;24.778;2022-10-15T01:12:31;101319.25;;;10.14;100.00
40908;BME280;51055;59.436;24.778;2022-10-15T01:17:54;101313.13;;;10.12;100.00
40908;BME280;51055;59.436;24.778;2022-10-15T01:31:47;101310.81;;;10.08;100.00
40908;BME280;51055;59.436;24.778;2022-10-15T01:34:42;101318.88;;;10.06;100.00
40908;BME280;51055;59.436;24.778;2022-10-15T01:37:15;101318.94;;;10.05;100.00
40908;BME280;51055;59.436;24.778;2022-10-15T01:39:53;101321.22;;;10.11;100.00
40908;BME280;51055;59.436;24.778;2022-10-15T01:42:27;101310.91;;;10.06;100.00
40908;BME280;51055;59.436;24.778;2022-10-15T01:45:05;101309.84;;;10.09;100.00
40908;BME280;51055;59.436;24.778;2022-10-15T01:47:44;101311.84;;;10.05;100.00
40908;BME280;51055;59.436;24.778;2022-10-15T01:50:16;101314.50;;;10.05;100.00
40908;BME280;51055;59.436;24.778;2022-10-15T01:52:46;101313.03;;;10.01;100.00
40908;BME280;51055;59.436;24.778;2022-10-15T01:55:16;101304.31;;;9.99;100.00
40908;BME280;51055;59.436;24.778;2022-10-15T01:57:45;101303.38;;;10.00;100.00
40908;BME280;51055;59.436;24.778;2022-10-15T02:00:13;101305.91;;;10.02;100.00
40908;BME280;51055;59.436;24.778;2022-10-15T02:02:41;101300.59;;;10.02;100.00
40908;BME280;51055;59.436;24.778;2022-10-15T02:05:23;101304.97;;;10.03;100.00
40908;BME280;51055;59.436;24.778;2022-10-15T02:10:30;101304.31;;;9.99;100.00
40908;BME280;51055;59.436;24.778;2022-10-15T02:16:16;101303.81;;;9.94;100.00
40908;BME280;51055;59.436;24.778;2022-10-15T02:19:03;101300.09;;;9.97;100.00
40908;BME280;51055;59.436;24.778;2022-10-15T02:21:48;101302.00;;;9.94;100.00
40908;BME280;51055;59.436;24.778;2022-10-15T02:24:22;101307.09;;;9.98;100.00
40908;BME280;51055;59.436;24.778;2022-10-15T02:26:53;101300.94;;;9.97;100.00
40908;BME280;51055;59.436;24.778;2022-10-15T02:29:25;101300.38;;;9.92;100.00
40908;BME280;51055;59.436;24.778;2022-10-15T02:31:55;101295.00;;;9.93;100.00
40908;BME280;51055;59.436;24.778;2022-10-15T02:34:28;101297.84;;;9.90;100.00
40908;BME280;51055;59.436;24.778;2022-10-15T02:36:57;101295.50;;;9.86;100.00
40908;BME280;51055;59.436;24.778;2022-10-15T02:39:27;101288.41;;;9.86;100.00
40908;BME280;51055;59.436;24.778;2022-10-15T02:41:55;101286.19;;;9.80;100.00
40908;BME280;51055;59.436;24.778;2022-10-15T02:44:23;101297.84;;;9.78;100.00
40908;BME280;51055;59.436;24.778;2022-10-15T02:46:51;101285.41;;;9.78;100.00
40908;BME280;51055;59.436;24.778;2022-10-15T02:49:18;101287.97;;;9.80;100.00
40908;BME280;51055;59.436;24.778;2022-10-15T02:51:46;101287.88;;;9.81;100.00
40908;BME280;51055;59.436;24.778;2022-10-15T02:54:13;101287.69;;;9.84;100.00
40908;BME280;51055;59.436;24.778;2022-10-15T02:56:41;101284.47;;;9.79;100.00
40908;BME280;51055;59.436;24.778;2022-10-15T02:59:09;101283.41;;;9.82;100.00
40908;BME280;51055;59.436;24.778;2022-10-15T03:01:37;101280.03;;;9.80;100.00
40908;BME280;51055;59.436;24.778;2022-10-15T03:04:05;101284.47;;;9.79;100.00
40908;BME280;51055;59.436;24.778;2022-10-15T03:06:32;101279.38;;;9.76;100.00
40908;BME280;51055;59.436;24.778;2022-10-15T03:09:00;101278.44;;;9.77;100.00
40908;BME280;51055;59.436;24.778;2022-10-15T03:11:28;101279.28;;;9.78;100.00
40908;BME280;51055;59.436;24.778;2022-10-15T03:13:55;101285.31;;;9.80;100.00
40908;BME280;51055;59.436;24.778;2022-10-15T03:16:23;101269.19;;;9.70;100.00
40908;BME280;51055;59.436;24.778;2022-10-15T03:18:50;101272.59;;;9.72;100.00
40908;BME280;51055;59.436;24.778;2022-10-15T03:21:18;101268.91;;;9.75;100.00
40908;BME280;51055;59.436;24.778;2022-10-15T03:23:45;101281.59;;;9.70;100.00
40908;BME280;51055;59.436;24.778;2022-10-15T03:26:13;101270.25;;;9.68;100.00
40908;BME280;51055;59.436;24.778;2022-10-15T03:28:41;101274.50;;;9.70;100.00
40908;BME280;51055;59.436;24.778;2022-10-15T03:31:09;101273.22;;;9.76;100.00
40908;BME280;51055;59.436;24.778;2022-10-15T03:33:37;101272.69;;;9.71;100.00
40908;BME280;51055;59.436;24.778;2022-10-15T03:36:05;101275.56;;;9.68;100.00
40908;BME280;51055;59.436;24.778;2022-10-15T03:38:33;101271.94;;;9.69;100.00
40908;BME280;51055;59.436;24.778;2022-10-15T03:41:01;101272.34;;;9.63;100.00
40908;BME280;51055;59.436;24.778;2022-10-15T03:43:28;101270.97;;;9.57;100.00
40908;BME280;51055;59.436;24.778;2022-10-15T03:46:00;101266.53;;;9.58;100.00
40908;BME280;51055;59.436;24.778;2022-10-15T03:48:29;101268.59;;;9.53;100.00
40908;BME280;51055;59.436;24.778;2022-10-15T03:50:57;101272.03;;;9.55;100.00
40908;BME280;51055;59.436;24.778;2022-10-15T03:53:25;101276.25;;;9.57;100.00
40908;BME280;51055;59.436;24.778;2022-10-15T03:55:53;101274.34;;;9.59;100.00
40908;BME280;51055;59.436;24.778;2022-10-15T03:58:20;101278.06;;;9.57;100.00
40908;BME280;51055;59.436;24.778;2022-10-15T04:00:48;101281.66;;;9.56;100.00
40908;BME280;51055;59.436;24.778;2022-10-15T04:03:15;101280.25;;;9.50;100.00
40908;BME280;51055;59.436;24.778;2022-10-15T04:05:51;101278.19;;;9.55;100.00
40908;BME280;51055;59.436;24.778;2022-10-15T04:08:21;101277.31;;;9.55;100.00
40908;BME280;51055;59.436;24.778;2022-10-15T04:10:50;101277.53;;;9.52;100.00
40908;BME280;51055;59.436;24.778;2022-10-15T04:13:17;101281.19;;;9.49;100.00
40908;BME280;51055;59.436;24.778;2022-10-15T04:15:45;101280.19;;;9.52;100.00
40908;BME280;51055;59.436;24.778;2022-10-15T04:18:13;101289.16;;;9.49;100.00
40908;BME280;51055;59.436;24.778;2022-10-15T04:20:41;101280.19;;;9.52;100.00
40908;BME280;51055;59.436;24.778;2022-10-15T04:23:09;101281.84;;;9.53;100.00
40908;BME280;51055;59.436;24.778;2022-10-15T04:25:37;101284.81;;;9.48;100.00
40908;BME280;51055;59.436;24.778;2022-10-15T04:28:04;101279.72;;;9.45;100.00
40908;BME280;51055;59.436;24.778;2022-10-15T04:30:32;101279.63;;;9.47;100.00
40908;BME280;51055;59.436;24.778;2022-10-15T04:32:59;101278.66;;;9.48;100.00
40908;BME280;51055;59.436;24.778;2022-10-15T04:35:27;101280.75;;;9.42;100.00
40908;BME280;51055;59.436;24.778;2022-10-15T04:37:58;101278.97;;;9.43;100.00
40908;BME280;51055;59.436;24.778;2022-10-15T04:40:26;101282.38;;;9.45;100.00
40908;BME280;51055;59.436;24.778;2022-10-15T04:42:54;101277.94;;;9.46;100.00
40908;BME280;51055;59.436;24.778;2022-10-15T04:45:21;101275.59;;;9.41;100.00
40908;BME280;51055;59.436;24.778;2022-10-15T04:47:50;101276.31;;;9.43;100.00
40908;BME280;51055;59.436;24.778;2022-10-15T04:50:18;101275.88;;;9.36;100.00
40908;BME280;51055;59.436;24.778;2022-10-15T04:52:45;101267.06;;;9.36;100.00
40908;BME280;51055;59.436;24.778;2022-10-15T04:55:13;101269.63;;;9.37;100.00
40908;BME280;51055;59.436;24.778;2022-10-15T04:57:40;101266.13;;;9.37;100.00
40908;BME280;51055;59.436;24.778;2022-10-15T05:00:08;101266.81;;;9.26;100.00
40908;BME280;51055;59.436;24.778;2022-10-15T05:02:41;101259.94;;;9.24;100.00
40908;BME280;51055;59.436;24.778;2022-10-15T05:05:09;101264.19;;;9.26;100.00
40908;BME280;51055;59.436;24.778;2022-10-15T05:07:36;101262.50;;;9.25;100.00
40908;BME280;51055;59.436;24.778;2022-10-15T05:10:04;101254.84;;;9.21;100.00
40908;BME280;51055;59.436;24.778;2022-10-15T05:12:32;101261.94;;;9.20;100.00
40908;BME280;51055;59.436;24.778;2022-10-15T05:14:59;101262.25;;;9.16;100.00
40908;BME280;51055;59.436;24.778;2022-10-15T05:17:28;101266.00;;;9.26;100.00
40908;BME280;51055;59.436;24.778;2022-10-15T05:19:57;101263.84;;;9.18;100.00
40908;BME280;51055;59.436;24.778;2022-10-15T05:22:24;101273.19;;;9.24;100.00
40908;BME280;51055;59.436;24.778;2022-10-15T05:24:52;101266.28;;;9.21;100.00
40908;BME280;51055;59.436;24.778;2022-10-15T05:27:20;101266.59;;;9.17;100.00
40908;BME280;51055;59.436;24.778;2022-10-15T05:29:48;101278.22;;;9.14;100.00
40908;BME280;51055;59.436;24.778;2022-10-15T05:32:15;101273.97;;;9.12;100.00
40908;BME280;51055;59.436;24.778;2022-10-15T05:34:43;101276.91;;;9.07;100.00
40908;BME280;51055;59.436;24.778;2022-10-15T05:37:10;101277.97;;;9.05;100.00
40908;BME280;51055;59.436;24.778;2022-10-15T05:39:38;101281.47;;;9.05;100.00
40908;BME280;51055;59.436;24.778;2022-10-15T05:42:05;101274.47;;;9.04;100.00
40908;BME280;51055;59.436;24.778;2022-10-15T05:44:33;101274.91;;;9.11;100.00
40908;BME280;51055;59.436;24.778;2022-10-15T05:47:00;101280.22;;;9.11;100.00
40908;BME280;51055;59.436;24.778;2022-10-15T05:49:28;101279.47;;;9.09;100.00
40908;BME280;51055;59.436;24.778;2022-10-15T05:51:55;101277.78;;;9.08;100.00
40908;BME280;51055;59.436;24.778;2022-10-15T05:54:23;101275.03;;;9.09;100.00
40908;BME280;51055;59.436;24.778;2022-10-15T05:56:50;101271.81;;;9.04;100.00
40908;BME280;51055;59.436;24.778;2022-10-15T05:59:17;101273.63;;;9.04;100.00
40908;BME280;51055;59.436;24.778;2022-10-15T06:01:45;101269.94;;;9.06;100.00
40908;BME280;51055;59.436;24.778;2022-10-15T06:04:12;101274.84;;;9.12;100.00
40908;BME280;51055;59.436;24.778;2022-10-15T06:06:40;101268.38;;;9.16;100.00
40908;BME280;51055;59.436;24.778;2022-10-15T06:09:08;101263.66;;;9.21;100.00
40908;BME280;51055;59.436;24.778;2022-10-15T06:11:35;101257.69;;;9.18;100.00
40908;BME280;51055;59.436;24.778;2022-10-15T06:14:03;101266.50;;;9.18;100.00
40908;BME280;51055;59.436;24.778;2022-10-15T06:16:31;101266.38;;;9.20;100.00
40908;BME280;51055;59.436;24.778;2022-10-15T06:18:59;101264.50;;;9.22;100.00
40908;BME280;51055;59.436;24.778;2022-10-15T06:21:27;101276.72;;;9.10;100.00
40908;BME280;51055;59.436;24.778;2022-10-15T06:23:54;101268.78;;;9.10;100.00
40908;BME280;51055;59.436;24.778;2022-10-15T06:26:22;101271.94;;;9.03;100.00
40908;BME280;51055;59.436;24.778;2022-10-15T06:28:50;101270.41;;;9.13;100.00
40908;BME280;51055;59.436;24.778;2022-10-15T06:31:18;101274.31;;;9.20;100.00
40908;BME280;51055;59.436;24.778;2022-10-15T06:33:45;101275.38;;;9.17;100.00
40908;BME280;51055;59.436;24.778;2022-10-15T06:36:13;101276.06;;;9.07;100.00
40908;BME280;51055;59.436;24.778;2022-10-15T06:38:40;101275.78;;;9.11;100.00
40908;BME280;51055;59.436;24.778;2022-10-15T06:41:10;101275.84;;;9.10;100.00
40908;BME280;51055;59.436;24.778;2022-10-15T06:43:38;101273.88;;;9.13;100.00
40908;BME280;51055;59.436;24.778;2022-10-15T06:46:05;101271.22;;;9.13;100.00
40908;BME280;51055;59.436;24.778;2022-10-15T06:48:33;101277.56;;;9.11;100.00
40908;BME280;51055;59.436;24.778;2022-10-15T06:51:02;101276.44;;;9.15;100.00
40908;BME280;51055;59.436;24.778;2022-10-15T06:53:30;101273.78;;;9.15;100.00
40908;BME280;51055;59.436;24.778;2022-10-15T06:56:00;101266.28;;;9.21;100.00
40908;BME280;51055;59.436;24.778;2022-10-15T06:58:28;101265.44;;;9.21;100.00
40908;BME280;51055;59.436;24.778;2022-10-15T07:01:00;101259.41;;;9.19;100.00
40908;BME280;51055;59.436;24.778;2022-10-15T07:03:28;101263.25;;;9.27;100.00
40908;BME280;51055;59.436;24.778;2022-10-15T07:06:00;101270.03;;;9.31;100.00
40908;BME280;51055;59.436;24.778;2022-10-15T07:08:28;101273.78;;;9.41;100.00
40908;BME280;51055;59.436;24.778;2022-10-15T07:10:56;101281.13;;;9.51;100.00
40908;BME280;51055;59.436;24.778;2022-10-15T07:13:24;101274.88;;;9.52;100.00
40908;BME280;51055;59.436;24.778;2022-10-15T07:15:52;101275.13;;;9.61;100.00
40908;BME280;51055;59.436;24.778;2022-10-15T07:18:22;101268.41;;;9.56;100.00
40908;BME280;51055;59.436;24.778;2022-10-15T07:20:50;101273.06;;;9.52;100.00
40908;BME280;51055;59.436;24.778;2022-10-15T07:23:17;101272.22;;;9.52;100.00
40908;BME280;51055;59.436;24.778;2022-10-15T07:25:49;101268.19;;;9.59;100.00
40908;BME280;51055;59.436;24.778;2022-10-15T07:28:16;101270.97;;;9.57;100.00
40908;BME280;51055;59.436;24.778;2022-10-15T07:30:44;101270.56;;;9.63;100.00
40908;BME280;51055;59.436;24.778;2022-10-15T07:33:11;101272.59;;;9.72;100.00
40908;BME280;51055;59.436;24.778;2022-10-15T07:35:39;101270.28;;;9.80;100.00
40908;BME280;51055;59.436;24.778;2022-10-15T07:38:06;101267.13;;;9.88;100.00
40908;BME280;51055;59.436;24.778;2022-10-15T07:40:34;101266.28;;;9.87;100.00
40908;BME280;51055;59.436;24.778;2022-10-15T07:43:01;101269.84;;;9.86;100.00
40908;BME280;51055;59.436;24.778;2022-10-15T07:45:29;101274.53;;;9.95;100.00
40908;BME280;51055;59.436;24.778;2022-10-15T07:47:56;101275.88;;;9.88;100.00
40908;BME280;51055;59.436;24.778;2022-10-15T07:50:24;101266.78;;;9.92;100.00
40908;BME280;51055;59.436;24.778;2022-10-15T07:52:56;101267.13;;;10.01;100.00
40908;BME280;51055;59.436;24.778;2022-10-15T07:55:24;101273.50;;;10.11;100.00
40908;BME280;51055;59.436;24.778;2022-10-15T07:57:56;101273.06;;;10.04;100.00
40908;BME280;51055;59.436;24.778;2022-10-15T08:00:24;101276.66;;;10.03;100.00
40908;BME280;51055;59.436;24.778;2022-10-15T08:02:52;101276.03;;;10.00;100.00
40908;BME280;51055;59.436;24.778;2022-10-15T08:05:20;101285.91;;;9.98;100.00
40908;BME280;51055;59.436;24.778;2022-10-15T08:07:48;101278.44;;;9.90;100.00
40908;BME280;51055;59.436;24.778;2022-10-15T08:10:15;101284.59;;;9.90;100.00
40908;BME280;51055;59.436;24.778;2022-10-15T08:12:44;101292.34;;;9.93;100.00
40908;BME280;51055;59.436;24.778;2022-10-15T08:15:12;101281.53;;;9.97;100.00
40908;BME280;51055;59.436;24.778;2022-10-15T08:17:40;101289.28;;;10.00;100.00
40908;BME280;51055;59.436;24.778;2022-10-15T08:20:08;101283.97;;;10.00;100.00
40908;BME280;51055;59.436;24.778;2022-10-15T08:22:36;101285.25;;;9.94;100.00
40908;BME280;51055;59.436;24.778;2022-10-15T08:25:04;101283.25;;;9.98;100.00
40908;BME280;51055;59.436;24.778;2022-10-15T08:27:32;101291.59;;;9.91;100.00
40908;BME280;51055;59.436;24.778;2022-10-15T08:29:59;101285.69;;;10.01;100.00
40908;BME280;51055;59.436;24.778;2022-10-15T08:32:27;101286.00;;;10.09;100.00
40908;BME280;51055;59.436;24.778;2022-10-15T08:34:55;101277.31;;;10.07;100.00
40908;BME280;51055;59.436;24.778;2022-10-15T08:37:22;101277.44;;;10.18;100.00
40908;BME280;51055;59.436;24.778;2022-10-15T08:39:50;101281.06;;;10.17;100.00
40908;BME280;51055;59.436;24.778;2022-10-15T08:42:32;101285.69;;;10.13;100.00
40908;BME280;51055;59.436;24.778;2022-10-15T08:45:04;101279.31;;;10.03;100.00
40908;BME280;51055;59.436;24.778;2022-10-15T08:47:41;101280.47;;;10.12;100.00
40908;BME280;51055;59.436;24.778;2022-10-15T08:50:40;101284.78;;;10.14;100.00
40908;BME280;51055;59.436;24.778;2022-10-15T08:53:14;101280.28;;;10.15;100.00
40908;BME280;51055;59.436;24.778;2022-10-15T08:55:44;101288.44;;;10.12;100.00
40908;BME280;51055;59.436;24.778;2022-10-15T09:06:36;101290.28;;;10.36;100.00
40908;BME280;51055;59.436;24.778;2022-10-15T09:09:19;101291.88;;;10.39;100.00
40908;BME280;51055;59.436;24.778;2022-10-15T09:15:19;101286.78;;;10.36;100.00
40908;BME280;51055;59.436;24.778;2022-10-15T09:17:54;101297.06;;;10.40;100.00
40908;BME280;51055;59.436;24.778;2022-10-15T09:20:30;101303.00;;;10.44;100.00
40908;BME280;51055;59.436;24.778;2022-10-15T09:22:59;101300.47;;;10.42;100.00
40908;BME280;51055;59.436;24.778;2022-10-15T09:25:34;101295.78;;;10.46;100.00
40908;BME280;51055;59.436;24.778;2022-10-15T09:28:09;101296.31;;;10.38;100.00
40908;BME280;51055;59.436;24.778;2022-10-15T09:30:50;101300.69;;;10.39;100.00
40908;BME280;51055;59.436;24.778;2022-10-15T09:33:42;101301.53;;;10.40;100.00
40908;BME280;51055;59.436;24.778;2022-10-15T09:36:41;101301.84;;;10.35;100.00
40908;BME280;51055;59.436;24.778;2022-10-15T09:44:59;101291.97;;;10.50;100.00
40908;BME280;51055;59.436;24.778;2022-10-15T09:47:31;101294.06;;;10.58;100.00
40908;BME280;51055;59.436;24.778;2022-10-15T09:50:00;101299.06;;;10.62;100.00
40908;BME280;51055;59.436;24.778;2022-10-15T09:52:50;101301.72;;;10.62;100.00
40908;BME280;51055;59.436;24.778;2022-10-15T09:57:53;101306.41;;;10.59;100.00
40908;BME280;51055;59.436;24.778;2022-10-15T10:00:22;101305.75;;;10.55;100.00
40908;BME280;51055;59.436;24.778;2022-10-15T10:03:09;101297.50;;;10.60;100.00
40908;BME280;51055;59.436;24.778;2022-10-15T10:05:40;101303.31;;;10.65;100.00
40908;BME280;51055;59.436;24.778;2022-10-15T10:08:13;101299.69;;;10.66;100.00
40908;BME280;51055;59.436;24.778;2022-10-15T10:10:53;101301.06;;;10.71;100.00
40908;BME280;51055;59.436;24.778;2022-10-15T10:13:30;101298.72;;;10.67;100.00
40908;BME280;51055;59.436;24.778;2022-10-15T10:16:07;101305.22;;;10.63;100.00
40908;BME280;51055;59.436;24.778;2022-10-15T10:18:36;101298.72;;;10.67;100.00
40908;BME280;51055;59.436;24.778;2022-10-15T10:21:27;101302.22;;;10.67;100.00
40908;BME280;51055;59.436;24.778;2022-10-15T10:24:29;101301.50;;;10.65;100.00
40908;BME280;51055;59.436;24.778;2022-10-15T10:26:59;101303.31;;;10.65;100.00
40908;BME280;51055;59.436;24.778;2022-10-15T10:29:31;101306.28;;;10.60;100.00
40908;BME280;51055;59.436;24.778;2022-10-15T10:32:20;101309.91;;;10.59;100.00
40908;BME280;51055;59.436;24.778;2022-10-15T10:34:48;101301.94;;;10.59;100.00
40908;BME280;51055;59.436;24.778;2022-10-15T10:37:19;101303.97;;;10.56;100.00
40908;BME280;51055;59.436;24.778;2022-10-15T10:39:59;101313.28;;;10.61;100.00
40908;BME280;51055;59.436;24.778;2022-10-15T10:42:32;101302.56;;;10.63;100.00
40908;BME280;51055;59.436;24.778;2022-10-15T10:45:16;101304.59;;;10.59;100.00
40908;BME280;51055;59.436;24.778;2022-10-15T10:47:45;101303.31;;;10.65;100.00
40908;BME280;51055;59.436;24.778;2022-10-15T10:50:29;101311.16;;;10.66;100.00
40908;BME280;51055;59.436;24.778;2022-10-15T10:52:57;101312.53;;;10.72;100.00
40908;BME280;51055;59.436;24.778;2022-10-15T10:55:33;101307.72;;;10.77;100.00
40908;BME280;51055;59.436;24.778;2022-10-15T10:58:03;101305.72;;;10.80;100.00
40908;BME280;51055;59.436;24.778;2022-10-15T11:00:38;101308.59;;;10.77;100.00
40908;BME280;51055;59.436;24.778;2022-10-15T11:03:21;101316.22;;;10.82;100.00
40908;BME280;51055;59.436;24.778;2022-10-15T11:05:57;101305.84;;;10.79;100.00
40908;BME280;51055;59.436;24.778;2022-10-15T11:08:36;101300.31;;;10.82;100.00
40908;BME280;51055;59.436;24.778;2022-10-15T11:14:23;101298.78;;;10.90;100.00
40908;BME280;51055;59.436;24.778;2022-10-15T11:23:31;101297.53;;;10.96;100.00
40908;BME280;51055;59.436;24.778;2022-10-15T11:51:33;101295.56;;;11.11;100.00
40908;BME280;51055;59.436;24.778;2022-10-15T11:56:48;101290.03;;;11.14;100.00
40908;BME280;51055;59.436;24.778;2022-10-15T12:02:10;101290.66;;;11.17;100.00
40908;BME280;51055;59.436;24.778;2022-10-15T12:04:45;101278.09;;;11.19;100.00
40908;BME280;51055;59.436;24.778;2022-10-15T12:07:40;101278.09;;;11.19;100.00
40908;BME280;51055;59.436;24.778;2022-10-15T12:21:02;101264.03;;;11.30;100.00
40908;BME280;51055;59.436;24.778;2022-10-15T12:26:31;101261.91;;;11.35;100.00
40908;BME280;51055;59.436;24.778;2022-10-15T12:29:01;101262.25;;;11.30;100.00
40908;BME280;51055;59.436;24.778;2022-10-15T12:34:26;101263.81;;;11.33;100.00
40908;BME280;51055;59.436;24.778;2022-10-15T12:37:13;101266.25;;;11.36;100.00
40908;BME280;51055;59.436;24.778;2022-10-15T12:39:43;101269.75;;;11.36;100.00
40908;BME280;51055;59.436;24.778;2022-10-15T12:42:34;101267.94;;;11.37;100.00
40908;BME280;51055;59.436;24.778;2022-10-15T12:45:05;101269.66;;;11.38;100.00
40908;BME280;51055;59.436;24.778;2022-10-15T12:47:55;101264.34;;;11.38;100.00
40908;BME280;51055;59.436;24.778;2022-10-15T12:50:39;101262.53;;;11.38;100.00
40908;BME280;51055;59.436;24.778;2022-10-15T12:56:11;101263.03;;;11.43;100.00
40908;BME280;51055;59.436;24.778;2022-10-15T12:58:43;101259.06;;;11.49;100.00
40908;BME280;51055;59.436;24.778;2022-10-15T13:11:48;101255.53;;;11.48;100.00
40908;BME280;51055;59.436;24.778;2022-10-15T13:16:58;101260.03;;;11.48;100.00
40908;BME280;51055;59.436;24.778;2022-10-15T13:19:30;101254.97;;;11.45;100.00
40908;BME280;51055;59.436;24.778;2022-10-15T13:22:02;101259.28;;;11.46;100.00
40908;BME280;51055;59.436;24.778;2022-10-15T13:24:42;101248.66;;;11.46;100.00
40908;BME280;51055;59.436;24.778;2022-10-15T13:27:32;101253.97;;;11.46;100.00
40908;BME280;51055;59.436;24.778;2022-10-15T13:30:10;101254.09;;;11.44;100.00
40908;BME280;51055;59.436;24.778;2022-10-15T13:32:45;101244.34;;;11.45;100.00
40908;BME280;51055;59.436;24.778;2022-10-15T13:35:22;101247.81;;;11.45;100.00
40908;BME280;51055;59.436;24.778;2022-10-15T13:37:52;101248.66;;;11.46;100.00
40908;BME280;51055;59.436;24.778;2022-10-15T13:40:22;101244.09;;;11.48;100.00
40908;BME280;51055;59.436;24.778;2022-10-15T13:45:28;101245.53;;;11.52;100.00
40908;BME280;51055;59.436;24.778;2022-10-15T13:47:56;101246.53;;;11.51;100.00
40908;BME280;51055;59.436;24.778;2022-10-15T13:55:30;101236.84;;;11.50;100.00
40908;BME280;51055;59.436;24.778;2022-10-15T13:58:02;101242.88;;;11.52;100.00
40908;BME280;51055;59.436;24.778;2022-10-15T14:00:34;101237.34;;;11.55;100.00
40908;BME280;51055;59.436;24.778;2022-10-15T14:03:17;101227.56;;;11.56;100.00
40908;BME280;51055;59.436;24.778;2022-10-15T14:05:47;101233.00;;;11.54;100.00
40908;BME280;51055;59.436;24.778;2022-10-15T14:08:17;101226.84;;;11.54;100.00
40908;BME280;51055;59.436;24.778;2022-10-15T14:10:46;101233.88;;;11.55;100.00
40908;BME280;51055;59.436;24.778;2022-10-15T14:13:14;101224.28;;;11.52;100.00
40908;BME280;51055;59.436;24.778;2022-10-15T14:18:17;101219.50;;;11.57;100.00
40908;BME280;51055;59.436;24.778;2022-10-15T14:20:53;101223.09;;;11.56;100.00
40908;BME280;51055;59.436;24.778;2022-10-15T14:23:24;101210.78;;;11.55;100.00
40908;BME280;51055;59.436;24.778;2022-10-15T14:26:01;101215.38;;;11.53;100.00
40908;BME280;51055;59.436;24.778;2022-10-15T14:28:31;101212.09;;;11.49;100.00
40908;BME280;51055;59.436;24.778;2022-10-15T14:31:00;101211.13;;;11.50;100.00
40908;BME280;51055;59.436;24.778;2022-10-15T14:36:20;101221.38;;;11.44;100.00
40908;BME280;51055;59.436;24.778;2022-10-15T14:38:50;101228.41;;;11.45;100.00
40908;BME280;51055;59.436;24.778;2022-10-15T14:41:30;101224.97;;;11.43;100.00
40908;BME280;51055;59.436;24.778;2022-10-15T14:44:00;101227.53;;;11.44;100.00
40908;BME280;51055;59.436;24.778;2022-10-15T14:46:35;101230.06;;;11.46;100.00
40908;BME280;51055;59.436;24.778;2022-10-15T14:51:55;101222.72;;;11.49;100.00
40908;BME280;51055;59.436;24.778;2022-10-15T14:54:41;101221.75;;;11.50;100.00
40908;BME280;51055;59.436;24.778;2022-10-15T14:59:45;101219.56;;;11.44;100.00
40908;BME280;51055;59.436;24.778;2022-10-15T15:02:14;101216.28;;;11.41;100.00
40908;BME280;51055;59.436;24.778;2022-10-15T15:04:45;101218.34;;;11.37;100.00
40908;BME280;51055;59.436;24.778;2022-10-15T15:07:19;101219.91;;;11.40;100.00
40908;BME280;51055;59.436;24.778;2022-10-15T15:09:49;101219.41;;;11.35;100.00
40908;BME280;51055;59.436;24.778;2022-10-15T15:12:20;101216.00;;;11.33;100.00